Time;durP1;ratioP1;P1;durP2;ratioP2;P2;SDS_P1;SDS_P2;PMS_P1;PMS_P2;Temp;Humidity;BMP_temperature;BMP_pressure;BME280_temperature;BME280_humidity;BME280_pressure;Samples;Min_cycle;Max_cycle;Signal;HPM_P1;HPM_P2
2022/10/02 00:01:48;;;;;;;10.35;2.15;;;;;;;;;;4987969;28;94091;-72
2022/10/02 00:04:21;;;;;;;15.88;2.65;;;;;;;;;;4986979;28;95483;-72
2022/10/02 00:06:49;;;;;;;10.05;1.92;;;;;;;;;;4977196;28;94643;-72
2022/10/02 00:09:19;;;;;;;14.55;2.97;;;;;;;;;;4984997;28;93263;-72
2022/10/02 00:11:47;;;;;;;12.45;2.53;;;;;;;;;;4979822;28;93177;-72
2022/10/02 00:14:17;;;;;;;9.52;1.83;;;;;;;;;;4973576;28;93400;-72
2022/10/02 00:16:49;;;;;;;16.27;2.58;;;;;;;;;;4980367;28;92786;-72
2022/10/02 00:19:16;;;;;;;10.52;1.63;;;;;;;;;;4981139;28;93632;-71
2022/10/02 00:21:51;;;;;;;9.18;1.77;;;;;;;;;;4964947;28;91740;-71
2022/10/02 00:24:20;;;;;;;12.93;2.33;;;;;;;;;;4974912;28;92842;-71
2022/10/02 00:26:58;;;;;;;12.23;2.10;;;;;;;;;;4976482;28;93847;-71
2022/10/02 00:29:31;;;;;;;9.75;2.22;;;;;;;;;;4972868;28;94844;-71
2022/10/02 00:32:06;;;;;;;7.53;1.35;;;;;;;;;;4982542;28;95637;-72
2022/10/02 00:34:51;;;;;;;11.35;2.22;;;;;;;;;;4977123;28;93591;-72
2022/10/02 00:37:31;;;;;;;8.05;1.67;;;;;;;;;;4980128;28;92519;-72
2022/10/02 00:39:57;;;;;;;;;;;;;;;;;;4981752;28;93498;-71
2022/10/02 00:42:29;;;;;;;7.38;1.42;;;;;;;;;;4990245;28;118446;-71
2022/10/02 00:44:56;;;;;;;9.13;1.58;;;;;;;;;;4976446;28;94221;-71
2022/10/02 00:47:37;;;;;;;15.05;2.28;;;;;;;;;;4976127;28;92665;-71
2022/10/02 00:50:22;;;;;;;8.20;1.67;;;;;;;;;;4976179;28;92596;-71
2022/10/02 00:52:49;;;;;;;14.63;1.70;;;;;;;;;;4985009;28;93099;-71
2022/10/02 00:55:21;;;;;;;8.35;1.65;;;;;;;;;;4987215;28;95852;-71
2022/10/02 00:57:57;;;;;;;14.65;2.03;;;;;;;;;;4987236;28;92427;-71
2022/10/02 01:00:23;;;;;;;10.40;3.25;;;;;;;;;;4980996;28;94309;-71
2022/10/02 01:03:16;;;;;;;14.07;4.70;;;;;;;;;;4978925;28;94401;-71
2022/10/02 01:05:43;;;;;;;14.77;3.70;;;;;;;;;;4983675;28;94226;-71
2022/10/02 01:08:09;;;;;;;8.20;2.60;;;;;;;;;;4974816;28;93333;-71
2022/10/02 01:10:36;;;;;;;14.27;2.53;;;;;;;;;;4971794;28;93949;-71
2022/10/02 01:13:04;;;;;;;15.13;2.78;;;;;;;;;;4980970;28;93191;-72
2022/10/02 01:15:32;;;;;;;15.85;2.85;;;;;;;;;;4979670;28;93377;-71
2022/10/02 01:17:58;;;;;;;17.73;2.58;;;;;;;;;;4976061;28;92644;-71
2022/10/02 01:20:34;;;;;;;16.63;2.40;;;;;;;;;;4979812;28;94829;-73
2022/10/02 01:23:06;;;;;;;13.65;2.28;;;;;;;;;;4983490;28;94481;-72
2022/10/02 01:25:32;;;;;;;22.52;3.15;;;;;;;;;;4986819;28;94255;-72
2022/10/02 01:27:58;;;;;;;18.48;3.55;;;;;;;;;;4971075;28;94966;-72
2022/10/02 01:30:25;;;;;;;18.85;3.47;;;;;;;;;;4973368;28;92511;-72
2022/10/02 01:32:55;;;;;;;16.92;3.40;;;;;;;;;;4982718;28;93145;-72
2022/10/02 01:35:22;;;;;;;16.45;2.70;;;;;;;;;;4986913;28;92446;-72
2022/10/02 01:37:49;;;;;;;19.88;3.75;;;;;;;;;;4974287;28;91752;-72
2022/10/02 01:40:30;;;;;;;15.10;3.28;;;;;;;;;;4976907;28;92434;-72
2022/10/02 01:43:01;;;;;;;17.20;3.70;;;;;;;;;;4974259;28;94579;-72
2022/10/02 01:45:35;;;;;;;16.88;3.80;;;;;;;;;;4977195;28;95116;-72
2022/10/02 01:48:09;;;;;;;16.17;3.50;;;;;;;;;;4976152;28;93502;-72
2022/10/02 01:50:45;;;;;;;24.30;4.53;;;;;;;;;;4961386;28;92555;-72
2022/10/02 01:53:12;;;;;;;18.10;3.80;;;;;;;;;;4980863;28;93626;-72
2022/10/02 01:55:59;;;;;;;23.23;4.78;;;;;;;;;;4974194;28;93601;-71
2022/10/02 01:58:32;;;;;;;23.83;4.30;;;;;;;;;;4987550;28;94436;-72
2022/10/02 02:01:17;;;;;;;34.50;4.93;;;;;;;;;;4993881;28;93552;-72
2022/10/02 02:03:51;;;;;;;21.05;3.47;;;;;;;;;;4980474;28;93858;-72
2022/10/02 02:06:22;;;;;;;21.95;4.28;;;;;;;;;;4985489;28;92414;-72
2022/10/02 02:09:04;;;;;;;21.80;4.68;;;;;;;;;;4980708;28;94174;-72
2022/10/02 02:11:32;;;;;;;23.00;4.93;;;;;;;;;;4974459;28;96445;-72
2022/10/02 02:14:23;;;;;;;26.05;4.28;;;;;;;;;;4985773;28;95731;-67
2022/10/02 02:16:53;;;;;;;21.45;4.68;;;;;;;;;;4976492;28;93435;-67
2022/10/02 02:19:38;;;;;;;24.35;4.65;;;;;;;;;;4987056;28;92771;-67
2022/10/02 02:22:14;;;;;;;24.85;4.63;;;;;;;;;;4977076;28;93182;-67
2022/10/02 02:24:51;;;;;;;32.80;4.57;;;;;;;;;;4968934;28;94447;-67
2022/10/02 02:27:20;;;;;;;38.42;4.70;;;;;;;;;;4973616;28;92466;-67
2022/10/02 02:29:48;;;;;;;29.90;5.15;;;;;;;;;;4984901;28;92885;-67
2022/10/02 02:32:17;;;;;;;31.83;5.10;;;;;;;;;;4976786;28;94368;-67
2022/10/02 02:34:46;;;;;;;37.13;5.00;;;;;;;;;;4994849;28;94153;-67
2022/10/02 02:37:17;;;;;;;32.10;5.45;;;;;;;;;;4983407;28;95801;-66
2022/10/02 02:39:52;;;;;;;34.50;4.65;;;;;;;;;;4986593;28;92432;-66
2022/10/02 02:42:21;;;;;;;24.00;4.53;;;;;;;;;;4958095;28;93155;-67
2022/10/02 02:44:51;;;;;;;24.10;4.15;;;;;;;;;;4975302;28;93343;-66
2022/10/02 02:47:21;;;;;;;32.30;5.43;;;;;;;;;;4979653;28;93885;-67
2022/10/02 02:49:51;;;;;;;21.48;4.90;;;;;;;;;;4995730;28;93232;-67
2022/10/02 02:52:20;;;;;;;30.77;4.25;;;;;;;;;;4970556;28;94377;-67
2022/10/02 02:54:48;;;;;;;31.48;4.45;;;;;;;;;;4978769;28;91715;-67
2022/10/02 02:57:17;;;;;;;28.88;4.60;;;;;;;;;;4975446;28;93451;-66
2022/10/02 02:59:47;;;;;;;25.48;4.18;;;;;;;;;;4995551;28;92383;-67
2022/10/02 03:02:13;;;;;;;19.20;3.72;;;;;;;;;;4980026;28;96369;-68
2022/10/02 03:04:39;;;;;;;29.95;4.63;;;;;;;;;;4977624;28;94639;-66
2022/10/02 03:07:11;;;;;;;32.35;4.50;;;;;;;;;;4974263;28;92840;-67
2022/10/02 03:09:39;;;;;;;29.70;4.72;;;;;;;;;;4973452;28;93543;-67
2022/10/02 03:12:19;;;;;;;25.27;3.88;;;;;;;;;;4974214;28;93429;-67
2022/10/02 03:14:52;;;;;;;18.40;3.30;;;;;;;;;;4982555;28;92533;-67
2022/10/02 03:17:21;;;;;;;21.48;4.45;;;;;;;;;;4984574;28;94301;-68
2022/10/02 03:19:56;;;;;;;21.55;3.60;;;;;;;;;;4978547;28;91944;-67
2022/10/02 03:22:28;;;;;;;30.33;4.22;;;;;;;;;;4973196;28;92461;-68
2022/10/02 03:24:57;;;;;;;21.02;3.42;;;;;;;;;;4979834;28;94419;-67
2022/10/02 03:27:23;;;;;;;20.38;4.00;;;;;;;;;;4978402;28;95611;-67
2022/10/02 03:29:54;;;;;;;34.75;4.40;;;;;;;;;;4973305;28;95609;-67
2022/10/02 03:32:20;;;;;;;23.15;4.15;;;;;;;;;;4970976;28;94123;-67
2022/10/02 03:34:47;;;;;;;26.90;4.40;;;;;;;;;;4974521;28;92434;-67
2022/10/02 03:37:13;;;;;;;17.80;4.10;;;;;;;;;;4976259;28;93180;-67
2022/10/02 03:39:43;;;;;;;25.48;4.30;;;;;;;;;;4963077;28;92465;-67
2022/10/02 03:42:13;;;;;;;28.67;3.97;;;;;;;;;;4960072;28;94159;-67
2022/10/02 03:44:39;;;;;;;27.73;3.83;;;;;;;;;;4969452;28;93710;-66
2022/10/02 03:47:05;;;;;;;27.60;4.80;;;;;;;;;;4973336;28;93184;-67
2022/10/02 03:49:31;;;;;;;35.10;4.68;;;;;;;;;;4974360;28;93136;-67
2022/10/02 03:51:58;;;;;;;24.50;4.30;;;;;;;;;;4955859;28;95755;-67
2022/10/02 03:54:25;;;;;;;25.30;3.83;;;;;;;;;;4975275;28;92481;-66
2022/10/02 03:56:54;;;;;;;30.92;4.90;;;;;;;;;;4971206;28;93209;-66
2022/10/02 03:59:29;;;;;;;29.65;4.60;;;;;;;;;;4973741;28;93555;-67
2022/10/02 04:01:56;;;;;;;24.17;4.20;;;;;;;;;;4974102;28;93109;-66
2022/10/02 04:04:30;;;;;;;34.20;4.75;;;;;;;;;;4972773;28;93489;-67
2022/10/02 04:07:01;;;;;;;29.08;4.20;;;;;;;;;;4973097;28;92828;-67
2022/10/02 04:09:35;;;;;;;23.27;4.40;;;;;;;;;;4974768;28;94247;-67
2022/10/02 04:12:06;;;;;;;21.65;4.20;;;;;;;;;;4973610;28;94419;-68
2022/10/02 04:14:40;;;;;;;35.45;4.53;;;;;;;;;;4973962;28;92422;-66
2022/10/02 04:17:14;;;;;;;24.58;4.68;;;;;;;;;;4972724;28;94992;-66
2022/10/02 04:19:40;;;;;;;29.40;4.45;;;;;;;;;;4974302;28;93483;-67
2022/10/02 04:22:13;;;;;;;27.80;4.78;;;;;;;;;;4976983;28;92389;-66
2022/10/02 04:24:46;;;;;;;25.00;4.80;;;;;;;;;;4969514;28;93467;-66
2022/10/02 04:27:17;;;;;;;22.15;4.07;;;;;;;;;;4984520;28;92511;-66
2022/10/02 04:29:52;;;;;;;27.75;4.82;;;;;;;;;;4969064;28;93285;-66
2022/10/02 04:32:24;;;;;;;27.08;4.28;;;;;;;;;;4964691;28;94500;-65
2022/10/02 04:34:51;;;;;;;19.45;3.97;;;;;;;;;;4975252;28;91625;-66
2022/10/02 04:37:31;;;;;;;33.03;5.07;;;;;;;;;;4972592;28;93498;-66
2022/10/02 04:40:06;;;;;;;27.45;3.97;;;;;;;;;;4972664;28;94049;-66
2022/10/02 04:42:40;;;;;;;27.42;5.22;;;;;;;;;;4971772;28;94881;-66
2022/10/02 04:45:09;;;;;;;23.05;3.85;;;;;;;;;;4977068;28;95581;-66
2022/10/02 04:47:38;;;;;;;27.77;4.18;;;;;;;;;;4970262;28;92502;-66
2022/10/02 04:50:12;;;;;;;27.77;5.60;;;;;;;;;;4982207;28;92404;-66
2022/10/02 04:52:45;;;;;;;21.85;4.25;;;;;;;;;;4970528;28;93397;-66
2022/10/02 04:55:17;;;;;;;20.02;4.25;;;;;;;;;;4965943;28;92428;-66
2022/10/02 04:58:02;;;;;;;21.98;3.63;;;;;;;;;;4975126;28;93310;-66
2022/10/02 05:00:35;;;;;;;30.83;4.88;;;;;;;;;;4976829;28;93817;-66
2022/10/02 05:03:07;;;;;;;19.55;3.72;;;;;;;;;;4975235;28;93029;-66
2022/10/02 05:05:39;;;;;;;29.27;4.30;;;;;;;;;;4975395;28;94210;-67
2022/10/02 05:08:05;;;;;;;21.35;4.28;;;;;;;;;;4987664;28;95835;-67
2022/10/02 05:10:44;;;;;;;19.48;3.90;;;;;;;;;;4997354;28;97024;-67
2022/10/02 05:13:11;;;;;;;22.05;3.92;;;;;;;;;;4988002;28;93423;-66
2022/10/02 05:15:43;;;;;;;25.52;3.60;;;;;;;;;;4977096;28;92783;-66
2022/10/02 05:18:17;;;;;;;20.13;3.72;;;;;;;;;;4990075;28;93312;-66
2022/10/02 05:20:54;;;;;;;17.55;3.33;;;;;;;;;;4986853;28;93550;-66
2022/10/02 05:23:32;;;;;;;22.70;4.45;;;;;;;;;;4996167;28;92484;-66
2022/10/02 05:26:07;;;;;;;20.95;3.53;;;;;;;;;;4996105;28;94162;-66
2022/10/02 05:28:52;;;;;;;20.33;3.58;;;;;;;;;;4971448;28;93403;-66
2022/10/02 05:31:27;;;;;;;18.23;3.65;;;;;;;;;;4982642;28;93254;-66
2022/10/02 05:34:06;;;;;;;19.08;4.00;;;;;;;;;;4987787;28;95836;-67
2022/10/02 05:36:38;;;;;;;28.75;3.92;;;;;;;;;;4986428;28;93107;-67
2022/10/02 05:39:05;;;;;;;19.65;4.53;;;;;;;;;;4995640;28;94167;-66
2022/10/02 05:41:35;;;;;;;24.45;4.45;;;;;;;;;;4995831;28;94376;-66
2022/10/02 05:44:02;;;;;;;21.25;4.60;;;;;;;;;;4996689;28;92578;-66
2022/10/02 05:46:30;;;;;;;23.20;3.78;;;;;;;;;;4983386;28;93192;-66
2022/10/02 05:49:04;;;;;;;23.73;4.57;;;;;;;;;;4976130;28;94456;-66
2022/10/02 05:51:31;;;;;;;21.98;4.45;;;;;;;;;;4992775;28;92665;-66
2022/10/02 05:54:02;;;;;;;23.45;4.65;;;;;;;;;;4977383;28;94046;-66
2022/10/02 05:56:34;;;;;;;18.08;4.10;;;;;;;;;;4975208;28;92490;-66
2022/10/02 05:59:05;;;;;;;27.60;4.35;;;;;;;;;;4955439;28;94723;-67
2022/10/02 06:01:42;;;;;;;20.40;4.45;;;;;;;;;;4976751;28;93369;-67
2022/10/02 06:04:13;;;;;;;22.33;4.90;;;;;;;;;;4988738;28;92931;-67
2022/10/02 06:06:43;;;;;;;21.25;4.15;;;;;;;;;;4993960;28;93153;-66
2022/10/02 06:09:24;;;;;;;20.97;4.83;;;;;;;;;;4980947;28;93420;-66
2022/10/02 06:11:56;;;;;;;25.92;4.40;;;;;;;;;;4971781;28;92457;-66
2022/10/02 06:14:32;;;;;;;25.63;4.50;;;;;;;;;;4977880;28;93129;-66
2022/10/02 06:17:01;;;;;;;34.00;5.30;;;;;;;;;;4984436;28;92142;-66
2022/10/02 06:19:34;;;;;;;20.13;3.83;;;;;;;;;;4970560;28;92526;-66
2022/10/02 06:22:05;;;;;;;33.88;6.18;;;;;;;;;;4989734;28;93354;-66
2022/10/02 06:24:52;;;;;;;23.00;5.35;;;;;;;;;;4985753;28;94836;-66
2022/10/02 06:27:36;;;;;;;33.83;5.43;;;;;;;;;;4983001;28;96512;-66
2022/10/02 06:30:09;;;;;;;25.58;4.88;;;;;;;;;;4978990;28;93519;-66
2022/10/02 06:32:35;;;;;;;27.70;4.82;;;;;;;;;;4969475;28;92446;-67
2022/10/02 06:35:05;;;;;;;39.17;5.35;;;;;;;;;;4969268;28;93214;-69
2022/10/02 06:37:37;;;;;;;24.25;4.72;;;;;;;;;;4973146;28;93792;-66
2022/10/02 06:40:23;;;;;;;33.75;5.03;;;;;;;;;;4986834;28;93497;-66
2022/10/02 06:42:51;;;;;;;35.75;4.47;;;;;;;;;;4975612;28;92875;-66
2022/10/02 06:45:26;;;;;;;36.42;5.72;;;;;;;;;;4983612;28;92552;-66
2022/10/02 06:47:53;;;;;;;30.10;4.22;;;;;;;;;;4972387;28;93345;-66
2022/10/02 06:50:28;;;;;;;23.65;4.07;;;;;;;;;;4972483;28;95824;-66
2022/10/02 06:52:57;;;;;;;29.90;4.60;;;;;;;;;;4974936;28;92910;-66
2022/10/02 06:55:42;;;;;;;26.80;4.63;;;;;;;;;;4961813;28;93081;-66
2022/10/02 06:58:37;;;;;;;29.80;5.65;;;;;;;;;;4971767;28;93405;-66
2022/10/02 07:01:11;;;;;;;28.33;4.60;;;;;;;;;;4963918;28;93720;-67
2022/10/02 07:03:43;;;;;;;25.17;4.60;;;;;;;;;;4981129;28;93250;-66
2022/10/02 07:06:27;;;;;;;19.73;3.75;;;;;;;;;;4995191;28;92451;-66
2022/10/02 07:09:02;;;;;;;30.83;4.68;;;;;;;;;;4980253;28;93288;-67
2022/10/02 07:11:35;;;;;;;31.58;6.20;;;;;;;;;;4973765;28;93355;-66
2022/10/02 07:14:14;;;;;;;25.05;4.05;;;;;;;;;;4974547;28;92766;-66
2022/10/02 07:16:59;;;;;;;24.37;4.03;;;;;;;;;;4972533;28;94893;-66
2022/10/02 07:19:25;;;;;;;26.58;5.28;;;;;;;;;;4960275;28;93889;-66
2022/10/02 07:22:10;;;;;;;30.58;6.60;;;;;;;;;;4984096;28;92778;-65
2022/10/02 07:25:15;;;;;;;31.30;7.97;;;;;;;;;;4975937;28;95657;-67
2022/10/02 07:28:04;;;;;;;38.28;7.55;;;;;;;;;;4973852;28;92579;-65
2022/10/02 07:30:42;;;;;;;27.88;5.63;;;;;;;;;;4960426;28;93184;-65
2022/10/02 07:33:14;;;;;;;29.40;7.20;;;;;;;;;;4981594;28;93579;-65
2022/10/02 07:35:55;;;;;;;25.30;5.93;;;;;;;;;;4982586;28;91716;-67
2022/10/02 07:38:42;;;;;;;35.55;7.00;;;;;;;;;;4976757;28;92627;-66
2022/10/02 07:41:17;;;;;;;28.00;5.68;;;;;;;;;;4988770;28;93142;-66
2022/10/02 07:43:43;;;;;;;29.30;5.53;;;;;;;;;;4973414;28;94844;-65
2022/10/02 07:46:09;;;;;;;23.40;4.75;;;;;;;;;;4973855;28;95614;-66
2022/10/02 07:48:45;;;;;;;24.25;4.10;;;;;;;;;;4973790;28;94276;-65
2022/10/02 07:51:45;;;;;;;23.05;4.10;;;;;;;;;;4974931;28;93494;-66
2022/10/02 07:54:03;;;;;;;24.27;4.63;;;;;;;;;;4977497;28;94632;-65
2022/10/02 07:56:30;;;;;;;28.23;4.10;;;;;;;;;;4983486;28;92381;-65
2022/10/02 07:58:58;;;;;;;25.27;3.83;;;;;;;;;;4974060;28;93072;-66
2022/10/02 08:01:27;;;;;;;20.15;4.32;;;;;;;;;;4975254;28;92704;-65
2022/10/02 08:03:58;;;;;;;30.42;4.45;;;;;;;;;;4973680;28;92527;-65
2022/10/02 08:06:24;;;;;;;25.63;4.88;;;;;;;;;;4969834;28;94231;-65
2022/10/02 08:08:54;;;;;;;26.08;4.40;;;;;;;;;;4992022;28;95858;-66
2022/10/02 08:11:40;;;;;;;30.30;4.85;;;;;;;;;;4994309;28;95561;-66
2022/10/02 08:14:11;;;;;;;34.95;4.70;;;;;;;;;;4976598;28;93757;-65
2022/10/02 08:16:47;;;;;;;18.35;4.20;;;;;;;;;;4988521;28;92517;-66
2022/10/02 08:19:33;;;;;;;21.10;4.05;;;;;;;;;;4981447;28;93207;-66
2022/10/02 08:22:02;;;;;;;16.63;3.17;;;;;;;;;;4994482;28;93390;-66
2022/10/02 08:24:49;;;;;;;19.38;3.78;;;;;;;;;;4975619;28;92584;-66
2022/10/02 08:27:18;;;;;;;25.13;4.07;;;;;;;;;;4974702;28;94229;-66
2022/10/02 08:29:52;;;;;;;22.92;4.25;;;;;;;;;;4973497;28;92363;-67
2022/10/02 08:32:18;;;;;;;19.60;3.75;;;;;;;;;;4977981;28;92520;-66
2022/10/02 08:34:44;;;;;;;24.77;3.80;;;;;;;;;;4974605;28;94902;-66
2022/10/02 08:37:28;;;;;;;31.58;4.85;;;;;;;;;;4978064;28;92625;-66
2022/10/02 08:39:54;;;;;;;18.63;3.75;;;;;;;;;;4977740;28;93123;-66
2022/10/02 08:42:20;;;;;;;26.23;4.15;;;;;;;;;;4977130;28;94437;-66
2022/10/02 08:45:06;;;;;;;16.88;3.50;;;;;;;;;;4977973;28;92524;-66
2022/10/02 08:47:55;;;;;;;22.17;4.03;;;;;;;;;;4958068;28;93543;-66
2022/10/02 08:50:51;;;;;;;21.40;4.93;;;;;;;;;;4958063;28;93416;-66
2022/10/02 08:53:35;;;;;;;27.35;3.88;;;;;;;;;;4958612;28;91718;-66
2022/10/02 08:56:02;;;;;;;27.05;4.68;;;;;;;;;;4960894;28;92531;-66
2022/10/02 08:58:47;;;;;;;32.47;5.03;;;;;;;;;;4958313;28;92459;-66
2022/10/02 09:01:33;;;;;;;26.00;4.30;;;;;;;;;;4956482;28;94765;-66
2022/10/02 09:04:09;;;;;;;19.73;3.90;;;;;;;;;;4957633;28;93450;-65
2022/10/02 09:06:37;;;;;;;18.80;2.90;;;;;;;;;;4957765;28;92504;-66
2022/10/02 09:09:22;;;;;;;22.23;3.95;;;;;;;;;;4958123;28;93432;-67
2022/10/02 09:11:59;;;;;;;19.63;3.50;;;;;;;;;;4957817;28;93424;-66
2022/10/02 09:14:36;;;;;;;31.50;4.07;;;;;;;;;;4957588;28;92874;-66
2022/10/02 09:17:15;;;;;;;25.38;3.72;;;;;;;;;;4992199;28;93114;-67
2022/10/02 09:19:59;;;;;;;20.50;3.88;;;;;;;;;;5000522;28;92661;-66
2022/10/02 09:22:28;;;;;;;33.85;3.60;;;;;;;;;;4996874;28;92461;-66
2022/10/02 09:25:13;;;;;;;26.23;4.35;;;;;;;;;;4996608;28;93430;-67
2022/10/02 09:27:39;;;;;;;15.05;2.95;;;;;;;;;;4995109;28;95082;-66
2022/10/02 09:30:14;;;;;;;23.38;3.55;;;;;;;;;;4997246;28;96578;-66
2022/10/02 09:33:01;;;;;;;18.45;3.70;;;;;;;;;;4996904;28;94433;-66
2022/10/02 09:35:42;;;;;;;14.95;3.13;;;;;;;;;;4996810;28;92481;-66
2022/10/02 09:38:23;;;;;;;22.08;3.50;;;;;;;;;;4996677;28;93195;-66
2022/10/02 09:40:49;;;;;;;;;;;;;;;;;;4996702;28;93489;-66
2022/10/02 09:43:31;;;;;;;17.10;3.22;;;;;;;;;;4999277;28;118402;-66
2022/10/02 09:46:07;;;;;;;20.48;3.42;;;;;;;;;;4988306;28;92701;-65
2022/10/02 09:48:41;;;;;;;16.17;3.17;;;;;;;;;;4976735;28;92386;-66
2022/10/02 09:51:10;;;;;;;18.35;3.03;;;;;;;;;;4976503;28;93158;-66
2022/10/02 09:53:43;;;;;;;18.10;3.65;;;;;;;;;;4974836;28;95821;-67
2022/10/02 09:56:24;;;;;;;25.52;3.50;;;;;;;;;;4976623;28;92837;-66
2022/10/02 09:58:59;;;;;;;14.85;3.13;;;;;;;;;;4976579;28;93540;-67
2022/10/02 10:01:36;;;;;;;23.95;2.72;;;;;;;;;;4976110;28;93708;-67
2022/10/02 10:04:02;;;;;;;24.48;3.03;;;;;;;;;;4978550;28;92415;-67
2022/10/02 10:06:45;;;;;;;17.35;2.88;;;;;;;;;;4976549;28;94486;-66
2022/10/02 10:09:26;;;;;;;15.88;3.15;;;;;;;;;;4976500;28;92551;-67
2022/10/02 10:11:54;;;;;;;15.50;2.65;;;;;;;;;;4976921;28;93114;-67
2022/10/02 10:14:44;;;;;;;16.02;2.95;;;;;;;;;;4975763;28;93445;-66
2022/10/02 10:17:29;;;;;;;24.98;4.30;;;;;;;;;;4971957;28;92461;-66
2022/10/02 10:20:14;;;;;;;14.77;2.85;;;;;;;;;;4972646;28;94749;-66
2022/10/02 10:22:48;;;;;;;20.80;3.63;;;;;;;;;;4973691;28;94483;-66
2022/10/02 10:25:26;;;;;;;16.65;2.92;;;;;;;;;;4974152;28;92567;-66
2022/10/02 10:27:58;;;;;;;18.92;3.03;;;;;;;;;;4976783;28;93568;-66
2022/10/02 10:30:34;;;;;;;22.20;2.75;;;;;;;;;;4973936;28;92416;-66
2022/10/02 10:33:19;;;;;;;21.75;3.22;;;;;;;;;;4973801;28;94319;-66
2022/10/02 10:36:04;;;;;;;17.80;3.10;;;;;;;;;;4973333;28;93470;-66
2022/10/02 10:38:48;;;;;;;19.70;3.03;;;;;;;;;;4974416;28;91673;-66
2022/10/02 10:41:23;;;;;;;18.45;3.33;;;;;;;;;;4973201;28;92745;-66
2022/10/02 10:43:55;;;;;;;18.13;3.28;;;;;;;;;;4972971;28;93482;-66
2022/10/02 10:46:46;;;;;;;29.15;3.80;;;;;;;;;;4971735;28;94896;-66
2022/10/02 10:49:34;;;;;;;16.42;2.70;;;;;;;;;;4973967;28;92533;-66
2022/10/02 10:52:10;;;;;;;15.82;3.00;;;;;;;;;;4976478;28;94721;-66
2022/10/02 10:54:49;;;;;;;19.85;2.88;;;;;;;;;;4969784;28;94241;-66
2022/10/02 10:57:26;;;;;;;13.65;2.65;;;;;;;;;;4980435;28;93397;-66
2022/10/02 11:00:19;;;;;;;10.32;2.40;;;;;;;;;;4973745;28;92433;-66
2022/10/02 11:02:57;;;;;;;16.38;3.22;;;;;;;;;;4970031;28;93201;-65
2022/10/02 11:05:23;;;;;;;10.25;2.22;;;;;;;;;;4973807;28;92739;-66
2022/10/02 11:08:05;;;;;;;14.52;2.65;;;;;;;;;;4979724;28;93033;-66
2022/10/02 11:10:38;;;;;;;14.77;2.35;;;;;;;;;;4975697;28;93141;-66
2022/10/02 11:13:08;;;;;;;13.40;2.38;;;;;;;;;;4969550;28;96198;-67
2022/10/02 11:15:53;;;;;;;21.98;3.10;;;;;;;;;;4984527;28;92684;-65
2022/10/02 11:18:22;;;;;;;18.60;2.92;;;;;;;;;;4974789;28;93489;-66
2022/10/02 11:21:02;;;;;;;12.20;2.22;;;;;;;;;;4975649;28;92396;-66
2022/10/02 11:23:31;;;;;;;23.73;3.35;;;;;;;;;;4988678;28;93299;-66
2022/10/02 11:25:58;;;;;;;18.17;3.33;;;;;;;;;;4988401;28;93374;-66
2022/10/02 11:28:39;;;;;;;16.45;2.72;;;;;;;;;;4975313;28;92439;-65
2022/10/02 11:31:06;;;;;;;17.27;2.25;;;;;;;;;;4975551;28;93507;-66
2022/10/02 11:33:41;;;;;;;9.27;2.47;;;;;;;;;;4980244;28;93443;-67
2022/10/02 11:36:14;;;;;;;14.00;2.72;;;;;;;;;;4985176;28;92539;-65
2022/10/02 11:38:58;;;;;;;14.13;2.78;;;;;;;;;;4976080;28;94856;-66
2022/10/02 11:41:42;;;;;;;15.68;3.38;;;;;;;;;;4975247;28;92434;-65
2022/10/02 11:44:10;;;;;;;15.13;2.90;;;;;;;;;;4976119;28;94383;-66
2022/10/02 11:46:37;;;;;;;9.73;2.53;;;;;;;;;;4979789;28;93966;-66
2022/10/02 11:49:30;;;;;;;16.25;3.15;;;;;;;;;;4974802;28;92448;-66
2022/10/02 11:51:56;;;;;;;21.40;3.40;;;;;;;;;;4974052;28;93304;-67
2022/10/02 11:54:28;;;;;;;16.60;3.17;;;;;;;;;;4977364;28;94409;-66
2022/10/02 11:56:59;;;;;;;25.73;3.22;;;;;;;;;;4982504;28;91683;-67
2022/10/02 11:59:37;;;;;;;21.90;3.63;;;;;;;;;;4974342;28;92383;-67
2022/10/02 12:02:13;;;;;;;19.77;3.47;;;;;;;;;;4976327;28;93364;-66
2022/10/02 12:04:51;;;;;;;12.68;3.15;;;;;;;;;;4976621;28;94945;-68
2022/10/02 12:07:20;;;;;;;19.00;2.97;;;;;;;;;;4975222;28;93519;-67
2022/10/02 12:09:47;;;;;;;18.20;3.58;;;;;;;;;;4971790;28;92649;-67
2022/10/02 12:12:16;;;;;;;13.45;2.55;;;;;;;;;;4962813;28;93466;-67
2022/10/02 12:14:59;;;;;;;22.50;3.55;;;;;;;;;;4982793;28;93553;-67
2022/10/02 12:17:26;;;;;;;14.68;3.10;;;;;;;;;;4960241;28;92400;-67
2022/10/02 12:28:40;;;;;;;17.10;3.60;;;;;;;;;;4977190;28;94384;-67
2022/10/02 12:31:17;;;;;;;11.70;2.50;;;;;;;;;;4975880;28;95286;-67
2022/10/02 12:34:13;;;;;;;22.02;3.85;;;;;;;;;;4976091;28;96625;-67
2022/10/02 12:36:40;;;;;;;12.23;2.47;;;;;;;;;;4975725;28;93439;-68
2022/10/02 12:39:09;;;;;;;15.07;3.08;;;;;;;;;;4977207;28;92751;-67
2022/10/02 12:41:57;;;;;;;13.70;2.95;;;;;;;;;;4976362;28;94189;-68
2022/10/02 12:44:24;;;;;;;15.50;2.95;;;;;;;;;;4992358;28;93442;-67
2022/10/02 12:47:00;;;;;;;14.82;2.47;;;;;;;;;;4980924;28;92478;-67
2022/10/02 12:49:35;;;;;;;17.85;3.08;;;;;;;;;;4977272;28;92689;-67
2022/10/02 12:52:14;;;;;;;22.42;3.05;;;;;;;;;;4976508;28;92946;-68
2022/10/02 12:54:41;;;;;;;14.57;2.53;;;;;;;;;;4977165;28;94568;-67
2022/10/02 12:57:50;;;;;;;13.63;2.60;;;;;;;;;;4975364;28;97239;-67
2022/10/02 13:00:13;;;;;;;14.57;2.60;;;;;;;;;;4957325;28;92442;-67
2022/10/02 13:02:58;;;;;;;11.50;2.92;;;;;;;;;;4974649;28;93610;-67
2022/10/02 13:05:39;;;;;;;6.95;1.90;;;;;;;;;;4977895;28;94862;-68
2022/10/02 13:08:34;;;;;;;11.45;2.50;;;;;;;;;;4975837;28;92444;-68
2022/10/02 13:11:06;;;;;;;13.23;2.90;;;;;;;;;;4976866;28;93854;-68
2022/10/02 13:13:55;;;;;;;6.47;1.95;;;;;;;;;;4977332;28;92620;-68
2022/10/02 13:16:28;;;;;;;11.82;2.80;;;;;;;;;;4977284;28;93108;-68
2022/10/02 13:19:13;;;;;;;8.48;2.38;;;;;;;;;;4976414;28;93779;-68
2022/10/02 13:21:46;;;;;;;10.27;2.15;;;;;;;;;;4974693;28;92595;-68
2022/10/02 13:24:31;;;;;;;13.52;2.35;;;;;;;;;;4974856;28;95020;-68
2022/10/02 13:27:05;;;;;;;12.93;2.55;;;;;;;;;;4976515;28;94005;-68
2022/10/02 13:29:42;;;;;;;10.90;2.10;;;;;;;;;;4975481;28;92502;-69
2022/10/02 13:32:08;;;;;;;8.65;1.90;;;;;;;;;;4982067;28;93602;-67
2022/10/02 13:34:47;;;;;;;5.93;1.98;;;;;;;;;;4986967;28;93304;-69
2022/10/02 13:37:21;;;;;;;10.05;2.10;;;;;;;;;;4994067;28;93814;-69
2022/10/02 13:39:57;;;;;;;13.60;2.38;;;;;;;;;;4981822;28;93395;-69
2022/10/02 13:42:35;;;;;;;11.27;2.50;;;;;;;;;;4993404;28;91737;-67
2022/10/02 13:45:09;;;;;;;11.48;2.42;;;;;;;;;;4982845;28;93019;-68
2022/10/02 13:47:39;;;;;;;9.73;2.33;;;;;;;;;;4975967;28;94072;-68
2022/10/02 13:50:21;;;;;;;15.70;2.70;;;;;;;;;;4973519;28;95258;-68
2022/10/02 13:52:53;;;;;;;16.63;2.45;;;;;;;;;;4970824;28;94344;-67
2022/10/02 13:55:23;;;;;;;12.38;2.75;;;;;;;;;;4973327;28;92581;-68
2022/10/02 13:58:07;;;;;;;13.50;2.72;;;;;;;;;;4976064;28;93093;-70
2022/10/02 14:00:37;;;;;;;15.80;2.83;;;;;;;;;;4973534;28;93319;-70
2022/10/02 14:03:16;;;;;;;18.23;3.05;;;;;;;;;;4977101;28;92442;-67
2022/10/02 14:05:46;;;;;;;15.77;2.70;;;;;;;;;;4984440;28;94227;-68
2022/10/02 14:08:21;;;;;;;14.05;2.75;;;;;;;;;;4984507;28;94046;-67
2022/10/02 14:11:17;;;;;;;13.10;2.63;;;;;;;;;;4977060;28;92476;-65
2022/10/02 14:14:07;;;;;;;14.95;2.92;;;;;;;;;;4986357;28;93976;-66
2022/10/02 14:16:38;;;;;;;11.55;2.50;;;;;;;;;;4973703;28;94844;-66
2022/10/02 14:19:04;;;;;;;12.05;2.60;;;;;;;;;;4975879;28;92453;-66
2022/10/02 14:21:36;;;;;;;14.32;2.63;;;;;;;;;;4977242;28;93154;-66
2022/10/02 14:24:58;;;;;;;22.88;2.97;;;;;;;;;;4983314;28;92490;-66
2022/10/02 14:27:14;;;;;;;18.27;3.25;;;;;;;;;;4986519;28;94375;-67
2022/10/02 14:29:44;;;;;;;10.88;2.72;;;;;;;;;;4972275;28;93578;-67
2022/10/02 14:32:30;;;;;;;10.68;2.88;;;;;;;;;;4975203;28;92945;-68
2022/10/02 14:35:16;;;;;;;13.68;2.72;;;;;;;;;;4974556;28;93087;-67
2022/10/02 14:37:51;;;;;;;13.32;2.28;;;;;;;;;;4956237;28;93458;-67
2022/10/02 14:40:18;;;;;;;15.38;2.30;;;;;;;;;;4956453;28;92449;-66
2022/10/02 14:42:52;;;;;;;10.27;2.60;;;;;;;;;;4972964;28;94934;-67
2022/10/02 14:45:38;;;;;;;15.73;2.92;;;;;;;;;;4993074;28;92398;-67
2022/10/02 14:48:17;;;;;;;10.43;2.40;;;;;;;;;;4974518;28;92464;-67
2022/10/02 14:50:52;;;;;;;12.23;2.58;;;;;;;;;;4975561;28;93401;-67
2022/10/02 14:53:30;;;;;;;21.35;3.30;;;;;;;;;;4980454;28;92574;-66
2022/10/02 14:56:15;;;;;;;12.48;2.50;;;;;;;;;;4991921;28;93518;-67
2022/10/02 14:58:53;;;;;;;23.25;3.45;;;;;;;;;;4974544;28;93425;-68
2022/10/02 15:01:23;;;;;;;10.30;2.08;;;;;;;;;;4975405;28;91783;-68
2022/10/02 15:03:49;;;;;;;13.45;2.75;;;;;;;;;;4973130;28;92761;-69
2022/10/02 15:06:22;;;;;;;13.82;2.42;;;;;;;;;;4978145;28;94420;-67
2022/10/02 15:08:58;;;;;;;15.00;2.50;;;;;;;;;;4985377;28;94893;-67
2022/10/02 15:11:34;;;;;;;11.40;2.53;;;;;;;;;;4995150;28;94411;-69
2022/10/02 15:14:05;;;;;;;14.20;3.22;;;;;;;;;;4985916;28;93699;-69
2022/10/02 15:19:30;;;;;;;16.45;3.22;;;;;;;;;;4977266;28;94539;-67
2022/10/02 15:21:58;;;;;;;18.48;4.07;;;;;;;;;;4969826;28;92707;-67
2022/10/02 15:24:24;;;;;;;13.32;2.72;;;;;;;;;;4976231;28;94152;-67
2022/10/02 15:27:02;;;;;;;16.58;2.88;;;;;;;;;;4985600;28;92701;-67